sensor_id;sensor_type;location;lat;lon;timestamp;P1;durP1;ratioP1;P2;durP2;ratioP2
67237;SDS011;54149;52.708;6.178;2023-12-20T00:01:39;25.48;;;3.20;;
67237;SDS011;54149;52.708;6.178;2023-12-20T00:04:05;25.17;;;3.15;;
67237;SDS011;54149;52.708;6.178;2023-12-20T00:06:32;24.70;;;2.55;;
67237;SDS011;54149;52.708;6.178;2023-12-20T00:08:58;23.90;;;3.25;;
67237;SDS011;54149;52.708;6.178;2023-12-20T00:11:24;14.77;;;3.15;;
67237;SDS011;54149;52.708;6.178;2023-12-20T00:13:50;23.65;;;3.90;;
67237;SDS011;54149;52.708;6.178;2023-12-20T00:16:16;36.28;;;2.67;;
67237;SDS011;54149;52.708;6.178;2023-12-20T00:18:43;33.50;;;3.63;;
67237;SDS011;54149;52.708;6.178;2023-12-20T00:21:09;21.17;;;3.10;;
67237;SDS011;54149;52.708;6.178;2023-12-20T00:23:35;29.58;;;3.17;;
67237;SDS011;54149;52.708;6.178;2023-12-20T00:26:01;36.35;;;3.22;;
67237;SDS011;54149;52.708;6.178;2023-12-20T00:28:27;28.45;;;4.22;;
67237;SDS011;54149;52.708;6.178;2023-12-20T00:30:53;27.00;;;3.83;;
67237;SDS011;54149;52.708;6.178;2023-12-20T00:33:19;19.67;;;2.47;;
67237;SDS011;54149;52.708;6.178;2023-12-20T00:35:45;16.13;;;2.47;;
67237;SDS011;54149;52.708;6.178;2023-12-20T00:38:11;28.15;;;3.53;;
67237;SDS011;54149;52.708;6.178;2023-12-20T00:40:37;21.63;;;2.95;;
67237;SDS011;54149;52.708;6.178;2023-12-20T00:43:04;31.70;;;2.95;;
67237;SDS011;54149;52.708;6.178;2023-12-20T00:45:30;26.75;;;5.65;;
67237;SDS011;54149;52.708;6.178;2023-12-20T00:47:56;33.78;;;3.63;;
67237;SDS011;54149;52.708;6.178;2023-12-20T00:50:22;38.00;;;4.15;;
67237;SDS011;54149;52.708;6.178;2023-12-20T00:52:48;19.27;;;2.85;;
67237;SDS011;54149;52.708;6.178;2023-12-20T00:55:14;23.83;;;3.58;;
67237;SDS011;54149;52.708;6.178;2023-12-20T00:57:40;28.02;;;3.10;;
67237;SDS011;54149;52.708;6.178;2023-12-20T01:00:06;33.85;;;4.68;;
67237;SDS011;54149;52.708;6.178;2023-12-20T01:02:34;22.77;;;3.25;;
67237;SDS011;54149;52.708;6.178;2023-12-20T01:05:01;22.27;;;4.00;;
67237;SDS011;54149;52.708;6.178;2023-12-20T01:07:27;27.08;;;3.70;;
67237;SDS011;54149;52.708;6.178;2023-12-20T01:09:54;31.38;;;3.72;;
67237;SDS011;54149;52.708;6.178;2023-12-20T01:12:20;19.48;;;3.20;;
67237;SDS011;54149;52.708;6.178;2023-12-20T01:14:46;37.70;;;4.22;;
67237;SDS011;54149;52.708;6.178;2023-12-20T01:17:12;30.13;;;3.90;;
67237;SDS011;54149;52.708;6.178;2023-12-20T01:19:39;28.15;;;3.38;;
67237;SDS011;54149;52.708;6.178;2023-12-20T01:22:05;29.33;;;3.92;;
67237;SDS011;54149;52.708;6.178;2023-12-20T01:24:31;29.00;;;3.30;;
67237;SDS011;54149;52.708;6.178;2023-12-20T01:26:57;26.98;;;3.83;;
67237;SDS011;54149;52.708;6.178;2023-12-20T01:29:23;26.30;;;4.32;;
67237;SDS011;54149;52.708;6.178;2023-12-20T01:31:50;28.20;;;3.92;;
67237;SDS011;54149;52.708;6.178;2023-12-20T01:34:16;29.70;;;4.10;;
67237;SDS011;54149;52.708;6.178;2023-12-20T01:36:42;26.92;;;3.13;;
67237;SDS011;54149;52.708;6.178;2023-12-20T01:39:08;23.15;;;4.15;;
67237;SDS011;54149;52.708;6.178;2023-12-20T01:41:34;29.13;;;3.50;;
67237;SDS011;54149;52.708;6.178;2023-12-20T01:44:00;26.95;;;3.33;;
67237;SDS011;54149;52.708;6.178;2023-12-20T01:46:26;35.10;;;3.85;;
67237;SDS011;54149;52.708;6.178;2023-12-20T01:48:53;28.08;;;4.45;;
67237;SDS011;54149;52.708;6.178;2023-12-20T01:51:19;37.13;;;3.42;;
67237;SDS011;54149;52.708;6.178;2023-12-20T01:53:45;28.08;;;3.60;;
67237;SDS011;54149;52.708;6.178;2023-12-20T01:56:12;25.65;;;4.38;;
67237;SDS011;54149;52.708;6.178;2023-12-20T01:58:41;21.45;;;3.58;;
67237;SDS011;54149;52.708;6.178;2023-12-20T02:01:09;31.25;;;3.70;;
67237;SDS011;54149;52.708;6.178;2023-12-20T02:03:35;26.33;;;3.42;;
67237;SDS011;54149;52.708;6.178;2023-12-20T02:06:02;21.10;;;2.83;;
67237;SDS011;54149;52.708;6.178;2023-12-20T02:08:29;17.23;;;2.30;;
67237;SDS011;54149;52.708;6.178;2023-12-20T02:10:55;26.05;;;3.00;;
67237;SDS011;54149;52.708;6.178;2023-12-20T02:13:21;23.75;;;2.50;;
67237;SDS011;54149;52.708;6.178;2023-12-20T02:15:47;19.98;;;3.92;;
67237;SDS011;54149;52.708;6.178;2023-12-20T02:18:14;29.63;;;4.93;;
67237;SDS011;54149;52.708;6.178;2023-12-20T02:20:41;35.60;;;4.15;;
67237;SDS011;54149;52.708;6.178;2023-12-20T02:23:08;30.67;;;4.55;;
67237;SDS011;54149;52.708;6.178;2023-12-20T02:25:34;32.15;;;4.00;;
67237;SDS011;54149;52.708;6.178;2023-12-20T02:28:00;34.10;;;6.53;;
67237;SDS011;54149;52.708;6.178;2023-12-20T02:30:26;38.78;;;4.57;;
67237;SDS011;54149;52.708;6.178;2023-12-20T02:32:52;43.85;;;4.38;;
67237;SDS011;54149;52.708;6.178;2023-12-20T02:35:19;36.25;;;4.90;;
67237;SDS011;54149;52.708;6.178;2023-12-20T02:37:45;36.85;;;4.38;;
67237;SDS011;54149;52.708;6.178;2023-12-20T02:40:11;28.95;;;4.47;;
67237;SDS011;54149;52.708;6.178;2023-12-20T02:42:37;37.50;;;6.68;;
67237;SDS011;54149;52.708;6.178;2023-12-20T02:45:03;41.13;;;5.40;;
67237;SDS011;54149;52.708;6.178;2023-12-20T02:47:30;37.63;;;5.50;;
67237;SDS011;54149;52.708;6.178;2023-12-20T02:49:56;45.80;;;5.15;;
67237;SDS011;54149;52.708;6.178;2023-12-20T02:52:25;47.22;;;6.18;;
67237;SDS011;54149;52.708;6.178;2023-12-20T02:54:51;39.67;;;5.78;;
67237;SDS011;54149;52.708;6.178;2023-12-20T02:57:17;39.47;;;5.68;;
67237;SDS011;54149;52.708;6.178;2023-12-20T02:59:43;37.25;;;5.45;;
67237;SDS011;54149;52.708;6.178;2023-12-20T03:02:09;48.97;;;5.90;;
67237;SDS011;54149;52.708;6.178;2023-12-20T03:04:35;52.03;;;6.53;;
67237;SDS011;54149;52.708;6.178;2023-12-20T03:07:01;34.90;;;5.35;;
67237;SDS011;54149;52.708;6.178;2023-12-20T03:09:27;48.42;;;5.75;;
67237;SDS011;54149;52.708;6.178;2023-12-20T03:11:54;43.28;;;6.07;;
67237;SDS011;54149;52.708;6.178;2023-12-20T03:14:20;39.80;;;5.93;;
67237;SDS011;54149;52.708;6.178;2023-12-20T03:16:49;39.83;;;5.32;;
67237;SDS011;54149;52.708;6.178;2023-12-20T03:19:16;31.17;;;4.78;;
67237;SDS011;54149;52.708;6.178;2023-12-20T03:21:42;46.53;;;6.60;;
67237;SDS011;54149;52.708;6.178;2023-12-20T03:24:08;32.83;;;5.38;;
67237;SDS011;54149;52.708;6.178;2023-12-20T03:26:34;41.15;;;4.90;;
67237;SDS011;54149;52.708;6.178;2023-12-20T03:29:01;37.97;;;7.25;;
67237;SDS011;54149;52.708;6.178;2023-12-20T03:31:27;47.28;;;5.80;;
67237;SDS011;54149;52.708;6.178;2023-12-20T03:33:53;43.58;;;5.80;;
67237;SDS011;54149;52.708;6.178;2023-12-20T03:36:19;45.85;;;6.13;;
67237;SDS011;54149;52.708;6.178;2023-12-20T03:38:45;47.75;;;5.75;;
67237;SDS011;54149;52.708;6.178;2023-12-20T03:41:12;47.20;;;5.90;;
67237;SDS011;54149;52.708;6.178;2023-12-20T03:43:38;42.25;;;6.25;;
67237;SDS011;54149;52.708;6.178;2023-12-20T03:46:04;49.25;;;5.65;;
67237;SDS011;54149;52.708;6.178;2023-12-20T03:48:33;41.78;;;7.38;;
67237;SDS011;54149;52.708;6.178;2023-12-20T03:50:59;48.30;;;6.57;;
67237;SDS011;54149;52.708;6.178;2023-12-20T03:53:25;43.20;;;6.18;;
67237;SDS011;54149;52.708;6.178;2023-12-20T03:55:51;39.63;;;6.07;;
67237;SDS011;54149;52.708;6.178;2023-12-20T03:58:18;47.63;;;7.05;;
67237;SDS011;54149;52.708;6.178;2023-12-20T04:00:44;39.83;;;6.72;;
67237;SDS011;54149;52.708;6.178;2023-12-20T04:03:10;39.78;;;5.57;;
67237;SDS011;54149;52.708;6.178;2023-12-20T04:05:39;37.95;;;6.63;;
67237;SDS011;54149;52.708;6.178;2023-12-20T04:08:05;38.97;;;5.22;;
67237;SDS011;54149;52.708;6.178;2023-12-20T04:10:31;48.95;;;7.20;;
67237;SDS011;54149;52.708;6.178;2023-12-20T04:12:57;31.13;;;5.57;;
67237;SDS011;54149;52.708;6.178;2023-12-20T04:15:23;37.05;;;7.30;;
67237;SDS011;54149;52.708;6.178;2023-12-20T04:17:49;39.00;;;5.57;;
67237;SDS011;54149;52.708;6.178;2023-12-20T04:20:16;38.70;;;5.40;;
67237;SDS011;54149;52.708;6.178;2023-12-20T04:22:42;47.13;;;5.63;;
67237;SDS011;54149;52.708;6.178;2023-12-20T04:25:08;36.42;;;5.93;;
67237;SDS011;54149;52.708;6.178;2023-12-20T04:27:34;43.95;;;6.35;;
67237;SDS011;54149;52.708;6.178;2023-12-20T04:30:00;43.53;;;6.88;;
67237;SDS011;54149;52.708;6.178;2023-12-20T04:32:26;44.38;;;5.70;;
67237;SDS011;54149;52.708;6.178;2023-12-20T04:34:53;36.78;;;6.63;;
67237;SDS011;54149;52.708;6.178;2023-12-20T04:37:19;36.85;;;5.18;;
67237;SDS011;54149;52.708;6.178;2023-12-20T04:39:45;50.47;;;6.05;;
67237;SDS011;54149;52.708;6.178;2023-12-20T04:42:11;52.88;;;7.15;;
67237;SDS011;54149;52.708;6.178;2023-12-20T04:44:37;37.63;;;6.60;;
67237;SDS011;54149;52.708;6.178;2023-12-20T04:47:03;52.10;;;7.00;;
67237;SDS011;54149;52.708;6.178;2023-12-20T04:49:29;51.42;;;6.10;;
67237;SDS011;54149;52.708;6.178;2023-12-20T04:51:55;51.75;;;6.72;;
67237;SDS011;54149;52.708;6.178;2023-12-20T04:54:21;37.03;;;5.57;;
67237;SDS011;54149;52.708;6.178;2023-12-20T04:56:47;61.03;;;7.18;;
67237;SDS011;54149;52.708;6.178;2023-12-20T04:59:14;51.40;;;7.13;;
67237;SDS011;54149;52.708;6.178;2023-12-20T05:01:40;47.67;;;6.70;;
67237;SDS011;54149;52.708;6.178;2023-12-20T05:04:06;41.78;;;6.18;;
67237;SDS011;54149;52.708;6.178;2023-12-20T05:06:32;48.63;;;5.95;;
67237;SDS011;54149;52.708;6.178;2023-12-20T05:08:58;39.10;;;5.25;;
67237;SDS011;54149;52.708;6.178;2023-12-20T05:11:24;48.67;;;7.75;;
67237;SDS011;54149;52.708;6.178;2023-12-20T05:13:50;36.03;;;5.40;;
67237;SDS011;54149;52.708;6.178;2023-12-20T05:16:17;58.53;;;7.05;;
67237;SDS011;54149;52.708;6.178;2023-12-20T05:18:43;38.25;;;5.60;;
67237;SDS011;54149;52.708;6.178;2023-12-20T05:21:09;49.70;;;5.63;;
67237;SDS011;54149;52.708;6.178;2023-12-20T05:23:35;38.95;;;5.45;;
67237;SDS011;54149;52.708;6.178;2023-12-20T05:26:01;61.45;;;5.80;;
67237;SDS011;54149;52.708;6.178;2023-12-20T05:28:28;42.45;;;6.80;;
67237;SDS011;54149;52.708;6.178;2023-12-20T05:30:54;48.47;;;6.35;;
67237;SDS011;54149;52.708;6.178;2023-12-20T05:33:20;46.22;;;6.05;;
67237;SDS011;54149;52.708;6.178;2023-12-20T05:35:46;40.22;;;6.68;;
67237;SDS011;54149;52.708;6.178;2023-12-20T05:38:12;45.63;;;8.32;;
67237;SDS011;54149;52.708;6.178;2023-12-20T05:40:38;61.13;;;6.80;;
67237;SDS011;54149;52.708;6.178;2023-12-20T05:43:04;39.63;;;5.63;;
67237;SDS011;54149;52.708;6.178;2023-12-20T05:45:30;40.05;;;5.68;;
67237;SDS011;54149;52.708;6.178;2023-12-20T05:47:56;36.97;;;5.13;;
67237;SDS011;54149;52.708;6.178;2023-12-20T05:50:23;44.08;;;6.13;;
67237;SDS011;54149;52.708;6.178;2023-12-20T05:52:50;43.78;;;5.45;;
67237;SDS011;54149;52.708;6.178;2023-12-20T05:55:16;48.38;;;6.35;;
67237;SDS011;54149;52.708;6.178;2023-12-20T05:57:42;33.38;;;5.70;;
67237;SDS011;54149;52.708;6.178;2023-12-20T06:00:09;37.75;;;5.85;;
67237;SDS011;54149;52.708;6.178;2023-12-20T06:02:35;53.33;;;5.95;;
67237;SDS011;54149;52.708;6.178;2023-12-20T06:05:02;40.75;;;6.38;;
67237;SDS011;54149;52.708;6.178;2023-12-20T06:07:28;43.05;;;5.80;;
67237;SDS011;54149;52.708;6.178;2023-12-20T06:09:54;40.15;;;5.82;;
67237;SDS011;54149;52.708;6.178;2023-12-20T06:12:20;47.00;;;6.65;;
67237;SDS011;54149;52.708;6.178;2023-12-20T06:14:47;46.30;;;6.05;;
67237;SDS011;54149;52.708;6.178;2023-12-20T06:17:13;42.53;;;5.25;;
67237;SDS011;54149;52.708;6.178;2023-12-20T06:19:39;45.50;;;5.88;;
67237;SDS011;54149;52.708;6.178;2023-12-20T06:22:05;47.22;;;5.40;;
67237;SDS011;54149;52.708;6.178;2023-12-20T06:24:31;46.33;;;5.35;;
67237;SDS011;54149;52.708;6.178;2023-12-20T06:26:59;39.08;;;5.18;;
67237;SDS011;54149;52.708;6.178;2023-12-20T06:29:26;31.63;;;5.72;;
67237;SDS011;54149;52.708;6.178;2023-12-20T06:31:52;36.13;;;4.85;;
67237;SDS011;54149;52.708;6.178;2023-12-20T06:34:18;35.88;;;6.32;;
67237;SDS011;54149;52.708;6.178;2023-12-20T06:36:44;49.88;;;6.53;;
67237;SDS011;54149;52.708;6.178;2023-12-20T06:39:10;32.55;;;5.82;;
67237;SDS011;54149;52.708;6.178;2023-12-20T06:41:37;37.70;;;5.82;;
67237;SDS011;54149;52.708;6.178;2023-12-20T06:44:03;36.90;;;5.15;;
67237;SDS011;54149;52.708;6.178;2023-12-20T06:46:30;34.35;;;4.60;;
67237;SDS011;54149;52.708;6.178;2023-12-20T06:48:56;40.28;;;6.20;;
67237;SDS011;54149;52.708;6.178;2023-12-20T06:51:22;44.10;;;6.22;;
67237;SDS011;54149;52.708;6.178;2023-12-20T06:53:51;36.63;;;5.60;;
67237;SDS011;54149;52.708;6.178;2023-12-20T06:56:17;34.80;;;5.78;;
67237;SDS011;54149;52.708;6.178;2023-12-20T06:58:43;46.13;;;5.60;;
67237;SDS011;54149;52.708;6.178;2023-12-20T07:01:13;38.80;;;5.15;;
67237;SDS011;54149;52.708;6.178;2023-12-20T07:03:39;46.40;;;5.82;;
67237;SDS011;54149;52.708;6.178;2023-12-20T07:06:05;44.70;;;5.75;;
67237;SDS011;54149;52.708;6.178;2023-12-20T07:08:31;36.42;;;6.95;;
67237;SDS011;54149;52.708;6.178;2023-12-20T07:10:58;47.75;;;5.47;;
67237;SDS011;54149;52.708;6.178;2023-12-20T07:13:24;49.30;;;6.75;;
67237;SDS011;54149;52.708;6.178;2023-12-20T07:15:50;49.95;;;5.72;;
67237;SDS011;54149;52.708;6.178;2023-12-20T07:18:16;38.53;;;4.97;;
67237;SDS011;54149;52.708;6.178;2023-12-20T07:20:42;39.63;;;5.88;;
67237;SDS011;54149;52.708;6.178;2023-12-20T07:23:09;43.15;;;5.55;;
67237;SDS011;54149;52.708;6.178;2023-12-20T07:25:35;38.15;;;5.63;;
67237;SDS011;54149;52.708;6.178;2023-12-20T07:28:01;54.97;;;6.60;;
67237;SDS011;54149;52.708;6.178;2023-12-20T07:30:27;35.38;;;5.18;;
67237;SDS011;54149;52.708;6.178;2023-12-20T07:32:53;47.20;;;6.68;;
67237;SDS011;54149;52.708;6.178;2023-12-20T07:35:19;45.42;;;6.05;;
67237;SDS011;54149;52.708;6.178;2023-12-20T07:37:45;33.75;;;4.63;;
67237;SDS011;54149;52.708;6.178;2023-12-20T07:40:12;41.95;;;5.57;;
67237;SDS011;54149;52.708;6.178;2023-12-20T07:42:38;40.85;;;5.82;;
67237;SDS011;54149;52.708;6.178;2023-12-20T07:45:04;53.83;;;6.93;;
67237;SDS011;54149;52.708;6.178;2023-12-20T07:47:30;67.90;;;8.70;;
67237;SDS011;54149;52.708;6.178;2023-12-20T07:49:57;41.42;;;5.28;;
67237;SDS011;54149;52.708;6.178;2023-12-20T07:52:23;58.83;;;6.57;;
67237;SDS011;54149;52.708;6.178;2023-12-20T07:54:49;52.70;;;6.25;;
67237;SDS011;54149;52.708;6.178;2023-12-20T07:57:15;45.53;;;5.72;;
67237;SDS011;54149;52.708;6.178;2023-12-20T07:59:41;65.93;;;7.10;;
67237;SDS011;54149;52.708;6.178;2023-12-20T08:02:09;58.15;;;7.57;;
67237;SDS011;54149;52.708;6.178;2023-12-20T08:04:35;39.00;;;5.50;;
67237;SDS011;54149;52.708;6.178;2023-12-20T08:07:01;53.75;;;6.60;;
67237;SDS011;54149;52.708;6.178;2023-12-20T08:09:27;33.70;;;5.45;;
67237;SDS011;54149;52.708;6.178;2023-12-20T08:11:53;52.03;;;7.88;;
67237;SDS011;54149;52.708;6.178;2023-12-20T08:14:19;45.35;;;6.10;;
67237;SDS011;54149;52.708;6.178;2023-12-20T08:16:45;42.75;;;6.18;;
67237;SDS011;54149;52.708;6.178;2023-12-20T08:19:12;38.72;;;6.05;;
67237;SDS011;54149;52.708;6.178;2023-12-20T08:21:38;47.50;;;6.45;;
67237;SDS011;54149;52.708;6.178;2023-12-20T08:24:05;48.40;;;5.88;;
67237;SDS011;54149;52.708;6.178;2023-12-20T08:26:31;40.60;;;5.55;;
67237;SDS011;54149;52.708;6.178;2023-12-20T08:28:57;30.33;;;6.70;;
67237;SDS011;54149;52.708;6.178;2023-12-20T08:31:23;34.63;;;4.43;;
67237;SDS011;54149;52.708;6.178;2023-12-20T08:33:49;40.10;;;5.53;;
67237;SDS011;54149;52.708;6.178;2023-12-20T08:36:16;45.33;;;6.05;;
67237;SDS011;54149;52.708;6.178;2023-12-20T08:38:43;40.17;;;6.50;;
67237;SDS011;54149;52.708;6.178;2023-12-20T08:41:09;54.47;;;5.40;;
67237;SDS011;54149;52.708;6.178;2023-12-20T08:43:35;43.25;;;6.05;;
67237;SDS011;54149;52.708;6.178;2023-12-20T08:46:02;49.85;;;6.13;;
67237;SDS011;54149;52.708;6.178;2023-12-20T08:48:28;38.65;;;4.78;;
67237;SDS011;54149;52.708;6.178;2023-12-20T08:50:54;39.75;;;5.80;;
67237;SDS011;54149;52.708;6.178;2023-12-20T08:53:20;45.25;;;6.90;;
67237;SDS011;54149;52.708;6.178;2023-12-20T08:55:47;48.97;;;5.82;;
67237;SDS011;54149;52.708;6.178;2023-12-20T08:58:13;47.55;;;6.55;;
67237;SDS011;54149;52.708;6.178;2023-12-20T09:00:40;37.28;;;5.60;;
67237;SDS011;54149;52.708;6.178;2023-12-20T09:03:06;49.53;;;6.28;;
67237;SDS011;54149;52.708;6.178;2023-12-20T09:05:32;46.35;;;6.55;;
67237;SDS011;54149;52.708;6.178;2023-12-20T09:07:58;45.53;;;5.75;;
67237;SDS011;54149;52.708;6.178;2023-12-20T09:10:24;46.13;;;5.95;;
67237;SDS011;54149;52.708;6.178;2023-12-20T09:12:50;40.40;;;5.45;;
67237;SDS011;54149;52.708;6.178;2023-12-20T09:15:19;41.60;;;6.00;;
67237;SDS011;54149;52.708;6.178;2023-12-20T09:17:45;40.92;;;5.97;;
67237;SDS011;54149;52.708;6.178;2023-12-20T09:20:11;33.42;;;5.68;;
67237;SDS011;54149;52.708;6.178;2023-12-20T09:22:38;46.08;;;6.20;;
67237;SDS011;54149;52.708;6.178;2023-12-20T09:25:06;41.63;;;5.78;;
67237;SDS011;54149;52.708;6.178;2023-12-20T09:27:33;39.00;;;5.40;;
67237;SDS011;54149;52.708;6.178;2023-12-20T09:29:59;40.47;;;6.07;;
67237;SDS011;54149;52.708;6.178;2023-12-20T09:32:25;41.78;;;5.88;;
67237;SDS011;54149;52.708;6.178;2023-12-20T09:34:51;35.35;;;6.22;;
67237;SDS011;54149;52.708;6.178;2023-12-20T09:37:17;35.25;;;5.68;;
67237;SDS011;54149;52.708;6.178;2023-12-20T09:39:43;40.78;;;5.43;;
67237;SDS011;54149;52.708;6.178;2023-12-20T09:42:11;32.17;;;5.18;;
67237;SDS011;54149;52.708;6.178;2023-12-20T09:44:37;49.47;;;6.95;;
67237;SDS011;54149;52.708;6.178;2023-12-20T09:47:07;39.33;;;7.03;;
67237;SDS011;54149;52.708;6.178;2023-12-20T09:49:33;39.80;;;5.55;;
67237;SDS011;54149;52.708;6.178;2023-12-20T09:52:00;48.42;;;7.05;;
67237;SDS011;54149;52.708;6.178;2023-12-20T09:54:26;32.22;;;5.40;;
67237;SDS011;54149;52.708;6.178;2023-12-20T09:56:54;46.53;;;6.72;;
67237;SDS011;54149;52.708;6.178;2023-12-20T09:59:20;37.20;;;5.43;;
67237;SDS011;54149;52.708;6.178;2023-12-20T10:01:46;34.45;;;5.55;;
67237;SDS011;54149;52.708;6.178;2023-12-20T10:04:12;50.15;;;5.40;;
67237;SDS011;54149;52.708;6.178;2023-12-20T10:06:39;32.55;;;3.97;;
67237;SDS011;54149;52.708;6.178;2023-12-20T10:09:06;13.82;;;2.15;;
67237;SDS011;54149;52.708;6.178;2023-12-20T10:11:32;20.17;;;1.92;;
67237;SDS011;54149;52.708;6.178;2023-12-20T10:13:59;12.98;;;2.10;;
67237;SDS011;54149;52.708;6.178;2023-12-20T10:16:26;20.70;;;1.92;;
67237;SDS011;54149;52.708;6.178;2023-12-20T10:18:52;21.67;;;2.28;;
67237;SDS011;54149;52.708;6.178;2023-12-20T10:21:19;14.55;;;2.17;;
67237;SDS011;54149;52.708;6.178;2023-12-20T10:23:45;23.17;;;1.80;;
67237;SDS011;54149;52.708;6.178;2023-12-20T10:26:24;18.60;;;2.30;;
67237;SDS011;54149;52.708;6.178;2023-12-20T10:28:51;17.50;;;1.88;;
67237;SDS011;54149;52.708;6.178;2023-12-20T10:33:57;13.00;;;2.72;;
67237;SDS011;54149;52.708;6.178;2023-12-20T10:36:24;21.90;;;2.13;;
67237;SDS011;54149;52.708;6.178;2023-12-20T10:38:52;21.45;;;2.38;;
67237;SDS011;54149;52.708;6.178;2023-12-20T10:41:25;22.67;;;2.80;;
67237;SDS011;54149;52.708;6.178;2023-12-20T10:43:53;24.67;;;3.33;;
67237;SDS011;54149;52.708;6.178;2023-12-20T10:46:19;14.70;;;2.53;;
67237;SDS011;54149;52.708;6.178;2023-12-20T10:48:46;26.75;;;3.08;;
67237;SDS011;54149;52.708;6.178;2023-12-20T10:51:13;16.02;;;2.30;;
67237;SDS011;54149;52.708;6.178;2023-12-20T10:53:40;27.33;;;3.58;;
67237;SDS011;54149;52.708;6.178;2023-12-20T10:56:06;21.77;;;2.90;;
67237;SDS011;54149;52.708;6.178;2023-12-20T10:58:33;21.65;;;3.65;;
67237;SDS011;54149;52.708;6.178;2023-12-20T11:01:01;22.48;;;3.00;;
67237;SDS011;54149;52.708;6.178;2023-12-20T11:03:28;20.38;;;3.15;;
67237;SDS011;54149;52.708;6.178;2023-12-20T11:06:00;17.20;;;1.90;;
67237;SDS011;54149;52.708;6.178;2023-12-20T11:11:06;22.33;;;2.95;;
67237;SDS011;54149;52.708;6.178;2023-12-20T11:13:34;20.17;;;2.05;;
67237;SDS011;54149;52.708;6.178;2023-12-20T11:16:02;16.45;;;2.22;;
67237;SDS011;54149;52.708;6.178;2023-12-20T11:18:31;17.65;;;1.95;;
67237;SDS011;54149;52.708;6.178;2023-12-20T11:21:01;24.40;;;2.10;;
67237;SDS011;54149;52.708;6.178;2023-12-20T11:23:29;19.85;;;1.92;;
67237;SDS011;54149;52.708;6.178;2023-12-20T11:25:56;25.15;;;1.92;;
67237;SDS011;54149;52.708;6.178;2023-12-20T11:28:24;25.05;;;2.05;;
67237;SDS011;54149;52.708;6.178;2023-12-20T11:30:54;13.63;;;1.80;;
67237;SDS011;54149;52.708;6.178;2023-12-20T11:33:24;20.50;;;2.20;;
67237;SDS011;54149;52.708;6.178;2023-12-20T11:35:50;21.52;;;2.63;;
67237;SDS011;54149;52.708;6.178;2023-12-20T11:38:17;16.52;;;2.17;;
67237;SDS011;54149;52.708;6.178;2023-12-20T11:40:47;19.15;;;1.70;;
67237;SDS011;54149;52.708;6.178;2023-12-20T11:43:29;19.15;;;1.75;;
67237;SDS011;54149;52.708;6.178;2023-12-20T11:45:55;15.60;;;1.55;;
67237;SDS011;54149;52.708;6.178;2023-12-20T11:48:21;21.70;;;2.72;;
67237;SDS011;54149;52.708;6.178;2023-12-20T11:50:47;22.35;;;2.53;;
67237;SDS011;54149;52.708;6.178;2023-12-20T11:53:13;23.23;;;2.55;;
67237;SDS011;54149;52.708;6.178;2023-12-20T11:55:39;21.55;;;2.92;;
67237;SDS011;54149;52.708;6.178;2023-12-20T11:58:05;16.52;;;2.13;;
67237;SDS011;54149;52.708;6.178;2023-12-20T12:00:34;21.23;;;2.35;;
67237;SDS011;54149;52.708;6.178;2023-12-20T12:03:00;12.82;;;1.85;;
67237;SDS011;54149;52.708;6.178;2023-12-20T12:05:30;23.40;;;2.10;;
67237;SDS011;54149;52.708;6.178;2023-12-20T12:07:57;25.55;;;2.42;;
67237;SDS011;54149;52.708;6.178;2023-12-20T12:10:24;16.38;;;1.95;;
67237;SDS011;54149;52.708;6.178;2023-12-20T12:12:50;18.10;;;2.75;;
67237;SDS011;54149;52.708;6.178;2023-12-20T12:15:16;18.60;;;2.35;;
67237;SDS011;54149;52.708;6.178;2023-12-20T12:17:42;32.00;;;2.70;;
67237;SDS011;54149;52.708;6.178;2023-12-20T12:20:08;15.75;;;1.83;;
67237;SDS011;54149;52.708;6.178;2023-12-20T12:22:35;16.55;;;2.17;;
67237;SDS011;54149;52.708;6.178;2023-12-20T12:25:11;15.00;;;3.05;;
67237;SDS011;54149;52.708;6.178;2023-12-20T12:27:41;17.67;;;2.33;;
67237;SDS011;54149;52.708;6.178;2023-12-20T12:30:08;20.30;;;2.15;;
67237;SDS011;54149;52.708;6.178;2023-12-20T12:32:35;13.85;;;2.13;;
67237;SDS011;54149;52.708;6.178;2023-12-20T12:35:04;12.43;;;1.73;;
67237;SDS011;54149;52.708;6.178;2023-12-20T12:37:31;17.13;;;1.67;;
67237;SDS011;54149;52.708;6.178;2023-12-20T12:39:59;20.83;;;2.63;;
67237;SDS011;54149;52.708;6.178;2023-12-20T12:42:25;18.98;;;1.92;;
67237;SDS011;54149;52.708;6.178;2023-12-20T12:44:54;19.10;;;2.35;;
67237;SDS011;54149;52.708;6.178;2023-12-20T12:47:21;16.80;;;1.90;;
67237;SDS011;54149;52.708;6.178;2023-12-20T12:49:47;11.85;;;2.22;;
67237;SDS011;54149;52.708;6.178;2023-12-20T12:52:13;10.80;;;1.40;;
67237;SDS011;54149;52.708;6.178;2023-12-20T12:54:39;15.02;;;2.45;;
67237;SDS011;54149;52.708;6.178;2023-12-20T12:57:07;16.27;;;3.22;;
67237;SDS011;54149;52.708;6.178;2023-12-20T12:59:33;24.17;;;3.17;;
67237;SDS011;54149;52.708;6.178;2023-12-20T13:02:00;18.27;;;1.85;;
67237;SDS011;54149;52.708;6.178;2023-12-20T13:04:26;21.15;;;2.53;;
67237;SDS011;54149;52.708;6.178;2023-12-20T13:06:52;13.65;;;1.92;;
67237;SDS011;54149;52.708;6.178;2023-12-20T13:09:18;14.10;;;1.67;;
67237;SDS011;54149;52.708;6.178;2023-12-20T13:11:44;21.95;;;2.25;;
67237;SDS011;54149;52.708;6.178;2023-12-20T13:14:10;13.55;;;2.03;;
67237;SDS011;54149;52.708;6.178;2023-12-20T13:16:40;13.73;;;2.28;;
67237;SDS011;54149;52.708;6.178;2023-12-20T13:19:07;12.85;;;1.75;;
67237;SDS011;54149;52.708;6.178;2023-12-20T13:21:33;11.18;;;1.50;;
67237;SDS011;54149;52.708;6.178;2023-12-20T13:23:59;12.13;;;2.58;;
67237;SDS011;54149;52.708;6.178;2023-12-20T13:26:25;12.82;;;2.45;;
67237;SDS011;54149;52.708;6.178;2023-12-20T13:28:52;13.98;;;1.92;;
67237;SDS011;54149;52.708;6.178;2023-12-20T13:31:19;12.73;;;1.98;;
67237;SDS011;54149;52.708;6.178;2023-12-20T13:33:45;16.23;;;2.85;;
67237;SDS011;54149;52.708;6.178;2023-12-20T13:36:11;18.95;;;2.00;;
67237;SDS011;54149;52.708;6.178;2023-12-20T13:38:38;20.52;;;2.33;;
67237;SDS011;54149;52.708;6.178;2023-12-20T13:41:04;12.90;;;1.60;;
67237;SDS011;54149;52.708;6.178;2023-12-20T13:43:31;25.30;;;3.47;;
67237;SDS011;54149;52.708;6.178;2023-12-20T13:45:58;18.70;;;2.20;;
67237;SDS011;54149;52.708;6.178;2023-12-20T13:48:24;19.98;;;2.30;;
67237;SDS011;54149;52.708;6.178;2023-12-20T13:50:50;20.50;;;3.65;;
67237;SDS011;54149;52.708;6.178;2023-12-20T13:53:16;24.50;;;4.10;;
67237;SDS011;54149;52.708;6.178;2023-12-20T13:55:42;34.47;;;4.97;;
67237;SDS011;54149;52.708;6.178;2023-12-20T13:58:08;38.15;;;4.80;;
67237;SDS011;54149;52.708;6.178;2023-12-20T14:00:35;34.55;;;5.63;;
67237;SDS011;54149;52.708;6.178;2023-12-20T14:03:04;39.47;;;5.75;;
67237;SDS011;54149;52.708;6.178;2023-12-20T14:05:31;55.60;;;5.32;;
67237;SDS011;54149;52.708;6.178;2023-12-20T14:07:58;42.95;;;5.10;;
67237;SDS011;54149;52.708;6.178;2023-12-20T14:10:25;29.80;;;4.05;;
67237;SDS011;54149;52.708;6.178;2023-12-20T14:12:52;34.78;;;4.75;;
67237;SDS011;54149;52.708;6.178;2023-12-20T14:15:18;37.13;;;4.32;;
67237;SDS011;54149;52.708;6.178;2023-12-20T14:17:44;38.38;;;5.75;;
67237;SDS011;54149;52.708;6.178;2023-12-20T14:20:10;25.92;;;5.00;;
67237;SDS011;54149;52.708;6.178;2023-12-20T14:22:38;28.05;;;5.13;;
67237;SDS011;54149;52.708;6.178;2023-12-20T14:25:10;32.80;;;4.38;;
67237;SDS011;54149;52.708;6.178;2023-12-20T14:27:37;34.70;;;4.18;;
67237;SDS011;54149;52.708;6.178;2023-12-20T14:30:03;27.85;;;4.60;;
67237;SDS011;54149;52.708;6.178;2023-12-20T14:32:29;26.08;;;4.05;;
67237;SDS011;54149;52.708;6.178;2023-12-20T14:34:55;38.55;;;5.32;;